createdAt,value
2022-11-09T00:00:50.661Z,4.30
2022-11-09T00:03:18.842Z,4.43
2022-11-09T00:05:57.299Z,4.43
2022-11-09T00:08:25.295Z,4.63
2022-11-09T00:10:53.101Z,3.53
2022-11-09T00:13:21.224Z,4.50
2022-11-09T00:15:50.046Z,4.60
2022-11-09T00:18:18.685Z,4.33
2022-11-09T00:20:48.288Z,4.83
2022-11-09T00:23:19.027Z,4.23
2022-11-09T00:25:47.433Z,3.70
2022-11-09T00:28:15.817Z,3.70
2022-11-09T00:30:44.760Z,3.30
2022-11-09T00:33:12.521Z,3.70
2022-11-09T00:35:40.452Z,3.47
2022-11-09T00:38:08.376Z,4.00
2022-11-09T00:40:37.640Z,3.20
2022-11-09T00:43:05.467Z,2.83
2022-11-09T00:45:33.350Z,3.90
2022-11-09T00:48:01.085Z,3.93
2022-11-09T00:50:29.020Z,3.70
2022-11-09T00:52:56.907Z,3.20
2022-11-09T00:55:24.950Z,3.43
2022-11-09T00:57:54.360Z,2.97
2022-11-09T01:00:24.199Z,2.80
2022-11-09T01:02:53.377Z,3.77
2022-11-09T01:05:23.538Z,3.30
2022-11-09T01:07:51.465Z,3.30
2022-11-09T01:10:20.392Z,3.20
2022-11-09T01:12:48.313Z,2.60
2022-11-09T01:15:21.992Z,3.60
2022-11-09T01:17:50.292Z,3.70
2022-11-09T01:20:18.465Z,3.30
2022-11-09T01:22:46.239Z,3.37
2022-11-09T01:25:15.376Z,2.97
2022-11-09T01:27:43.183Z,3.00
2022-11-09T01:30:11.872Z,3.00
2022-11-09T01:32:41.157Z,3.43
2022-11-09T01:35:09.738Z,2.90
2022-11-09T01:37:37.500Z,2.80
2022-11-09T01:40:06.228Z,2.70
2022-11-09T01:42:38.154Z,3.37
2022-11-09T01:45:25.310Z,3.60
2022-11-09T01:48:02.984Z,2.37
2022-11-09T01:50:39.060Z,2.40
2022-11-09T01:53:11.176Z,2.10
2022-11-09T01:55:39.190Z,3.27
2022-11-09T01:58:11.107Z,3.17
2022-11-09T02:00:42.340Z,2.70
2022-11-09T02:03:16.825Z,2.50
2022-11-09T02:05:45.997Z,2.90
2022-11-09T02:08:17.368Z,2.47
2022-11-09T02:10:52.081Z,2.50
2022-11-09T02:13:23.231Z,2.90
2022-11-09T02:15:53.222Z,2.57
2022-11-09T02:18:22.885Z,2.70
2022-11-09T02:20:54.020Z,2.90
2022-11-09T02:23:22.796Z,2.47
2022-11-09T02:25:54.989Z,2.93
2022-11-09T02:28:23.653Z,2.60
2022-11-09T02:30:55.089Z,2.70
2022-11-09T02:33:22.973Z,2.47
2022-11-09T02:35:52.137Z,2.30
2022-11-09T02:38:19.942Z,2.10
2022-11-09T02:40:51.054Z,2.23
2022-11-09T02:43:22.611Z,2.47
2022-11-09T02:45:50.608Z,2.23
2022-11-09T02:48:18.433Z,2.23
2022-11-09T02:50:46.213Z,2.40
2022-11-09T02:53:15.343Z,2.50
2022-11-09T02:55:43.143Z,3.40
2022-11-09T02:58:11.014Z,2.93
2022-11-09T03:00:38.892Z,2.70
2022-11-09T03:03:07.198Z,2.33
2022-11-09T03:05:35.014Z,3.10
2022-11-09T03:08:03.018Z,2.97
2022-11-09T03:10:32.067Z,3.10
2022-11-09T03:12:59.925Z,2.47
2022-11-09T03:15:27.667Z,2.83
2022-11-09T03:17:55.445Z,2.60
2022-11-09T03:20:23.230Z,2.80
2022-11-09T03:22:50.954Z,2.80
2022-11-09T03:25:18.839Z,2.43
2022-11-09T03:27:47.946Z,2.57
2022-11-09T03:30:18.842Z,2.70
2022-11-09T03:32:50.372Z,2.20
2022-11-09T03:35:18.444Z,2.20
2022-11-09T03:37:46.387Z,2.00
2022-11-09T03:40:14.205Z,2.20
2022-11-09T03:42:45.133Z,2.23
2022-11-09T03:45:14.822Z,2.20
2022-11-09T03:47:42.689Z,1.90
2022-11-09T03:50:12.231Z,2.30
2022-11-09T03:52:40.131Z,2.33
2022-11-09T03:55:08.963Z,2.13
2022-11-09T03:57:36.807Z,1.70
2022-11-09T04:00:05.891Z,1.70
2022-11-09T04:02:35.105Z,1.67
2022-11-09T04:05:03.029Z,1.47
2022-11-09T04:07:30.836Z,1.70
2022-11-09T04:09:58.664Z,1.67
2022-11-09T04:12:27.742Z,1.67
2022-11-09T04:14:55.473Z,2.40
2022-11-09T04:17:24.008Z,2.10
2022-11-09T04:19:53.140Z,1.40
2022-11-09T04:22:20.982Z,1.73
2022-11-09T04:24:49.072Z,2.00
2022-11-09T04:27:17.609Z,1.63
2022-11-09T04:29:45.520Z,1.63
2022-11-09T04:32:13.315Z,1.77
2022-11-09T04:34:41.410Z,1.60
2022-11-09T04:37:11.029Z,1.43
2022-11-09T04:39:38.807Z,1.40
2022-11-09T04:42:07.473Z,1.33
2022-11-09T04:44:36.048Z,1.33
2022-11-09T04:47:03.812Z,1.50
2022-11-09T04:49:32.632Z,1.50
2022-11-09T04:52:00.416Z,1.47
2022-11-09T04:54:29.623Z,1.60
2022-11-09T04:56:57.498Z,1.67
2022-11-09T04:59:25.265Z,1.53
2022-11-09T05:01:53.062Z,1.30
2022-11-09T05:04:22.489Z,1.43
2022-11-09T05:06:50.434Z,1.40
2022-11-09T05:09:18.760Z,1.70
2022-11-09T05:11:47.897Z,1.47
2022-11-09T05:14:16.681Z,1.83
2022-11-09T05:16:46.774Z,1.50
2022-11-09T05:19:15.102Z,1.23
2022-11-09T05:21:43.036Z,1.90
2022-11-09T05:24:09.868Z,2.13
2022-11-09T05:26:39.824Z,1.70
2022-11-09T05:29:12.640Z,1.77
2022-11-09T05:31:43.670Z,2.13
2022-11-09T05:34:14.384Z,2.20
2022-11-09T05:36:42.137Z,1.80
2022-11-09T05:39:10.858Z,3.00
2022-11-09T05:41:38.615Z,2.40
2022-11-09T05:44:07.844Z,2.53
2022-11-09T05:46:35.940Z,2.87
2022-11-09T05:49:03.756Z,2.60
2022-11-09T05:51:31.588Z,2.60
2022-11-09T05:53:59.977Z,2.80
2022-11-09T05:56:27.756Z,2.90
2022-11-09T05:58:55.517Z,2.57
2022-11-09T06:01:24.660Z,2.93
2022-11-09T06:03:55.056Z,2.70
2022-11-09T06:06:23.004Z,2.40
2022-11-09T06:08:51.105Z,2.00
2022-11-09T06:11:23.986Z,2.37
2022-11-09T06:13:52.798Z,2.90
2022-11-09T06:16:21.106Z,2.80
2022-11-09T06:18:50.468Z,2.50
2022-11-09T06:21:18.411Z,3.13
2022-11-09T06:23:46.216Z,3.30
2022-11-09T06:26:14.583Z,2.83
2022-11-09T06:28:42.984Z,3.43
2022-11-09T06:31:16.164Z,3.20
2022-11-09T06:33:44.116Z,2.77
2022-11-09T06:36:13.873Z,2.63
2022-11-09T06:38:42.147Z,2.37
2022-11-09T06:41:10.943Z,2.73
2022-11-09T06:43:38.731Z,2.70
2022-11-09T06:46:07.351Z,3.47
2022-11-09T06:48:35.277Z,3.00
2022-11-09T06:51:03.628Z,3.17
2022-11-09T06:53:33.451Z,3.10
2022-11-09T06:56:02.472Z,3.10
2022-11-09T06:58:31.212Z,2.60
2022-11-09T07:00:59.319Z,2.77
2022-11-09T07:03:27.571Z,2.60
2022-11-09T07:05:55.287Z,2.67
2022-11-09T07:08:23.086Z,2.80
2022-11-09T07:10:52.160Z,3.20
2022-11-09T07:13:20.442Z,2.70
2022-11-09T07:15:54.194Z,2.20
2022-11-09T07:18:21.988Z,2.30
2022-11-09T07:20:49.768Z,2.60
2022-11-09T07:23:17.819Z,2.37
2022-11-09T07:25:45.967Z,2.50
2022-11-09T07:28:15.258Z,2.33
2022-11-09T07:30:43.029Z,2.37
2022-11-09T07:33:18.041Z,2.27
2022-11-09T07:35:46.250Z,2.43
2022-11-09T07:38:15.661Z,1.73
2022-11-09T07:40:44.223Z,2.10
2022-11-09T07:43:13.532Z,1.93
2022-11-09T07:45:42.823Z,2.03
2022-11-09T07:48:11.929Z,1.90
2022-11-09T07:50:40.928Z,2.30
2022-11-09T07:53:10.008Z,2.23
2022-11-09T07:55:37.843Z,2.03
2022-11-09T07:58:08.089Z,2.63
2022-11-09T08:00:37.856Z,2.70
2022-11-09T08:03:07.031Z,2.20
2022-11-09T08:05:35.778Z,2.20
2022-11-09T08:08:05.791Z,2.07
2022-11-09T08:10:35.153Z,2.27
2022-11-09T08:13:04.939Z,2.43
2022-11-09T08:15:33.304Z,2.40
2022-11-09T08:18:02.197Z,2.70
2022-11-09T08:20:31.984Z,2.60
2022-11-09T08:23:03.970Z,2.50
2022-11-09T08:25:32.852Z,2.60
2022-11-09T08:28:00.617Z,2.60
2022-11-09T08:30:28.621Z,2.57
2022-11-09T08:32:56.457Z,3.10
2022-11-09T08:35:25.899Z,3.47
2022-11-09T08:37:55.511Z,2.63
2022-11-09T08:40:25.387Z,4.03
2022-11-09T08:42:53.797Z,3.20
2022-11-09T08:45:22.260Z,4.70
2022-11-09T08:47:50.044Z,4.90
2022-11-09T08:50:18.055Z,5.67
2022-11-09T08:52:45.870Z,5.20
2022-11-09T08:55:15.078Z,4.47
2022-11-09T08:57:43.011Z,3.40
2022-11-09T09:00:11.958Z,3.70
2022-11-09T09:02:39.752Z,2.87
2022-11-09T09:05:08.058Z,2.37
2022-11-09T09:07:35.879Z,2.67
2022-11-09T09:10:04.397Z,2.33
2022-11-09T09:12:33.549Z,2.10
2022-11-09T09:15:01.477Z,1.73
2022-11-09T09:17:29.528Z,1.77
2022-11-09T09:19:57.305Z,2.07
2022-11-09T09:22:25.149Z,1.93
2022-11-09T09:24:53.627Z,1.93
2022-11-09T09:27:21.924Z,1.90
2022-11-09T09:29:51.089Z,1.80
2022-11-09T09:32:18.897Z,2.20
2022-11-09T09:34:46.659Z,1.63
2022-11-09T09:37:14.424Z,1.50
2022-11-09T09:39:42.158Z,1.57
2022-11-09T09:42:16.711Z,1.53
2022-11-09T09:44:48.405Z,1.57
2022-11-09T09:47:23.917Z,1.50
2022-11-09T09:49:56.546Z,1.70
2022-11-09T09:52:32.251Z,1.63
2022-11-09T09:55:07.353Z,1.73
2022-11-09T09:57:41.678Z,1.60
2022-11-09T10:00:20.704Z,1.77
2022-11-09T10:02:50.823Z,1.90
2022-11-09T10:05:19.909Z,2.37
2022-11-09T10:07:55.772Z,2.17
2022-11-09T10:10:44.298Z,2.20
2022-11-09T10:13:39.564Z,1.60
2022-11-09T10:16:13.037Z,1.63
2022-11-09T10:19:05.522Z,1.50
2022-11-09T10:21:45.179Z,1.60
2022-11-09T10:24:26.360Z,1.20
2022-11-09T10:26:57.580Z,1.20
2022-11-09T10:29:27.317Z,1.43
2022-11-09T10:31:58.574Z,1.20
2022-11-09T10:34:40.600Z,1.20
2022-11-09T10:37:13.812Z,1.67
2022-11-09T10:39:45.479Z,1.43
2022-11-09T10:42:13.348Z,1.23
2022-11-09T10:44:41.080Z,1.70
2022-11-09T10:47:11.173Z,1.20
2022-11-09T10:49:41.657Z,1.60
2022-11-09T10:52:42.993Z,1.27
2022-11-09T10:55:24.120Z,0.87
2022-11-09T10:57:56.014Z,1.03
2022-11-09T11:00:24.124Z,1.60
2022-11-09T11:02:53.141Z,1.33
2022-11-09T11:05:32.099Z,1.30
2022-11-09T11:08:13.051Z,1.20
2022-11-09T11:10:40.809Z,1.60
2022-11-09T11:13:23.682Z,1.23
2022-11-09T11:15:52.504Z,1.10
2022-11-09T11:18:25.344Z,1.10
2022-11-09T11:21:17.462Z,1.30
2022-11-09T11:23:46.423Z,0.90
2022-11-09T11:26:26.122Z,0.93
2022-11-09T11:28:58.959Z,1.17
2022-11-09T11:31:26.910Z,1.17
2022-11-09T11:33:54.751Z,1.20
2022-11-09T11:36:34.312Z,1.37
2022-11-09T11:39:13.164Z,0.90
2022-11-09T11:42:00.893Z,1.40
2022-11-09T11:44:54.670Z,1.10
2022-11-09T11:47:36.061Z,0.80
2022-11-09T11:50:28.958Z,1.20
2022-11-09T11:53:09.999Z,1.27
2022-11-09T11:56:13.177Z,1.23
2022-11-09T11:58:51.462Z,1.23
2022-11-09T12:01:32.809Z,1.20
2022-11-09T12:04:16.924Z,1.30
2022-11-09T12:07:01.677Z,1.27
2022-11-09T12:09:54.688Z,1.47
2022-11-09T12:12:35.730Z,1.60
2022-11-09T12:15:22.916Z,1.23
2022-11-09T12:18:00.015Z,1.47
2022-11-09T12:20:32.336Z,1.43
2022-11-09T12:23:16.935Z,1.53
2022-11-09T12:25:51.185Z,1.50
2022-11-09T12:28:41.999Z,1.30
2022-11-09T12:31:24.704Z,1.30
2022-11-09T12:33:58.637Z,1.37
2022-11-09T12:36:32.480Z,1.57
2022-11-09T12:39:05.021Z,1.50
2022-11-09T12:41:37.971Z,1.30
2022-11-09T12:44:16.914Z,1.53
2022-11-09T12:46:49.669Z,1.23
2022-11-09T12:49:31.205Z,1.43
2022-11-09T12:51:59.320Z,1.10
2022-11-09T12:54:27.743Z,1.30
2022-11-09T12:56:59.225Z,1.50
2022-11-09T12:59:38.608Z,0.80
2022-11-09T13:02:06.856Z,1.20
2022-11-09T13:04:34.748Z,1.13
2022-11-09T13:07:27.245Z,1.37
2022-11-09T13:09:56.123Z,1.10
2022-11-09T13:12:42.673Z,1.50
2022-11-09T13:15:25.151Z,1.23
2022-11-09T13:18:00.659Z,1.90
2022-11-09T13:20:59.973Z,1.40
2022-11-09T13:23:59.341Z,2.00
2022-11-09T13:26:25.882Z,1.70
2022-11-09T13:29:11.080Z,1.67
2022-11-09T13:32:01.875Z,1.80
2022-11-09T13:34:44.652Z,1.63
2022-11-09T13:37:38.602Z,1.33
2022-11-09T13:40:51.262Z,1.33
2022-11-09T13:43:25.336Z,1.93
2022-11-09T13:45:56.888Z,1.80
2022-11-09T13:48:42.650Z,1.70
2022-11-09T13:51:13.329Z,1.50
2022-11-09T13:53:56.091Z,1.67
2022-11-09T13:56:28.939Z,1.80
2022-11-09T13:59:00.447Z,1.60
2022-11-09T14:01:34.251Z,1.60
2022-11-09T14:04:04.948Z,1.70
2022-11-09T14:06:34.448Z,1.40
2022-11-09T14:09:04.004Z,1.40
2022-11-09T14:11:51.696Z,1.50
2022-11-09T14:14:46.236Z,1.70
2022-11-09T14:17:22.715Z,1.60
2022-11-09T14:20:00.574Z,1.67
2022-11-09T14:22:34.020Z,1.30
2022-11-09T14:25:06.499Z,1.30
2022-11-09T14:27:34.267Z,1.57
2022-11-09T14:30:02.535Z,1.77
2022-11-09T14:32:35.478Z,1.50
2022-11-09T14:35:20.105Z,1.57
2022-11-09T14:37:48.094Z,1.70
2022-11-09T14:40:20.647Z,1.63
2022-11-09T14:42:51.696Z,1.77
2022-11-09T14:45:19.961Z,1.90
2022-11-09T14:47:51.549Z,2.20
2022-11-09T14:50:23.183Z,1.70
2022-11-09T14:52:53.091Z,2.00
2022-11-09T14:55:22.874Z,2.03
2022-11-09T14:57:53.215Z,1.57
2022-11-09T15:00:27.498Z,1.87
2022-11-09T15:02:57.416Z,2.00
2022-11-09T15:05:39.850Z,1.60
2022-11-09T15:08:16.631Z,1.80
2022-11-09T15:10:50.579Z,1.90
2022-11-09T15:13:19.140Z,1.80
2022-11-09T15:15:52.690Z,1.70
2022-11-09T15:18:30.284Z,1.77
2022-11-09T15:21:16.073Z,1.80
2022-11-09T15:23:45.715Z,2.00
2022-11-09T15:26:29.190Z,2.27
2022-11-09T15:28:56.962Z,2.30
2022-11-09T15:31:28.004Z,2.33
2022-11-09T15:33:58.490Z,2.13
2022-11-09T15:36:32.640Z,1.90
2022-11-09T15:39:05.108Z,2.10
2022-11-09T15:41:32.892Z,1.70
2022-11-09T15:44:00.819Z,1.93
2022-11-09T15:46:37.070Z,1.53
2022-11-09T15:49:18.168Z,2.03
2022-11-09T15:51:46.550Z,2.40
2022-11-09T15:54:14.844Z,1.93
2022-11-09T15:56:43.196Z,1.70
2022-11-09T15:59:19.123Z,2.20
2022-11-09T16:01:47.391Z,1.90
2022-11-09T16:04:16.566Z,2.70
2022-11-09T16:06:46.756Z,2.10
2022-11-09T16:09:15.201Z,1.93
2022-11-09T16:11:42.974Z,2.50
2022-11-09T16:14:10.941Z,2.07
2022-11-09T16:16:38.803Z,2.80
2022-11-09T16:19:06.657Z,4.60
2022-11-09T16:21:35.832Z,3.40
2022-11-09T16:24:03.641Z,2.77
2022-11-09T16:26:31.920Z,3.20
2022-11-09T16:29:00.377Z,3.03
2022-11-09T16:31:50.289Z,2.70
2022-11-09T16:34:16.117Z,2.80
2022-11-09T16:36:49.914Z,2.93
2022-11-09T16:39:21.969Z,2.77
2022-11-09T16:41:51.065Z,2.60
2022-11-09T16:44:22.835Z,2.50
2022-11-09T16:46:52.005Z,2.70
2022-11-09T16:49:19.888Z,2.47
2022-11-09T16:51:49.031Z,2.00
2022-11-09T16:54:16.733Z,2.90
2022-11-09T16:56:44.881Z,2.13
2022-11-09T16:59:12.805Z,2.20
2022-11-09T17:01:40.760Z,2.80
2022-11-09T17:04:08.634Z,2.70
2022-11-09T17:06:37.020Z,2.57
2022-11-09T17:09:06.214Z,2.80
2022-11-09T17:11:34.052Z,2.00
2022-11-09T17:14:01.899Z,2.30
2022-11-09T17:16:29.755Z,2.50
2022-11-09T17:18:58.652Z,2.40
2022-11-09T17:21:27.990Z,2.57
2022-11-09T17:23:56.877Z,2.20
2022-11-09T17:26:26.701Z,2.50
2022-11-09T17:28:56.098Z,2.70
2022-11-09T17:31:26.437Z,2.10
2022-11-09T17:33:59.849Z,2.70
2022-11-09T17:36:56.878Z,2.90
2022-11-09T17:39:16.604Z,2.67
2022-11-09T17:41:45.733Z,2.97
2022-11-09T17:44:13.516Z,3.00
2022-11-09T17:46:41.266Z,3.07
2022-11-09T17:49:10.397Z,3.00
2022-11-09T17:51:38.559Z,2.90
2022-11-09T17:54:06.457Z,2.97
2022-11-09T17:56:34.831Z,2.80
2022-11-09T17:59:05.093Z,2.60
2022-11-09T18:01:39.422Z,2.73
2022-11-09T18:04:10.015Z,3.07
2022-11-09T18:06:38.568Z,3.47
2022-11-09T18:11:54.883Z,2.53
2022-11-09T18:14:23.995Z,2.50
2022-11-09T18:16:51.961Z,3.10
2022-11-09T18:19:19.751Z,2.73
2022-11-09T18:21:47.948Z,3.00
2022-11-09T18:24:15.989Z,2.47
2022-11-09T18:26:43.798Z,3.13
2022-11-09T18:29:11.594Z,3.07
2022-11-09T18:31:40.747Z,3.40
2022-11-09T18:34:08.528Z,3.33
2022-11-09T18:36:36.295Z,3.27
2022-11-09T18:39:04.581Z,2.60
2022-11-09T18:41:32.445Z,3.20
2022-11-09T18:44:00.240Z,3.20
2022-11-09T18:46:33.113Z,3.60
2022-11-09T18:49:02.345Z,3.47
2022-11-09T18:51:30.207Z,2.73
2022-11-09T18:53:58.066Z,2.77
2022-11-09T18:56:26.546Z,2.63
2022-11-09T18:58:56.144Z,2.93
2022-11-09T19:01:25.544Z,2.60
2022-11-09T19:03:58.965Z,2.40
2022-11-09T19:06:29.260Z,3.17
2022-11-09T19:09:14.640Z,2.70
2022-11-09T19:11:42.949Z,2.17
2022-11-09T19:14:11.164Z,2.90
2022-11-09T19:16:38.975Z,2.40
2022-11-09T19:19:06.780Z,2.60
2022-11-09T19:21:39.916Z,3.00
2022-11-09T19:24:09.064Z,2.33
2022-11-09T19:26:36.845Z,2.80
2022-11-09T19:29:06.934Z,2.70
2022-11-09T19:31:35.805Z,2.80
2022-11-09T19:34:03.841Z,2.73
2022-11-09T19:36:34.625Z,2.67
2022-11-09T19:39:04.245Z,2.60
2022-11-09T19:41:32.536Z,2.60
2022-11-09T19:44:00.585Z,2.47
2022-11-09T19:46:31.936Z,3.40
2022-11-09T19:48:59.835Z,3.67
2022-11-09T19:51:29.392Z,4.50
2022-11-09T19:53:58.939Z,4.13
2022-11-09T19:56:30.225Z,3.30
2022-11-09T19:58:59.518Z,2.60
2022-11-09T20:01:27.820Z,2.83
2022-11-09T20:03:57.195Z,2.47
2022-11-09T20:06:25.745Z,2.70
2022-11-09T20:08:53.813Z,2.07
2022-11-09T20:11:44.012Z,2.53
2022-11-09T20:14:13.784Z,2.43
2022-11-09T20:16:44.379Z,2.63
2022-11-09T20:19:14.112Z,2.30
2022-11-09T20:21:42.588Z,2.87
2022-11-09T20:24:12.181Z,2.93
2022-11-09T20:26:40.838Z,2.90
2022-11-09T20:29:09.000Z,2.50
2022-11-09T20:31:38.172Z,2.93
2022-11-09T20:34:08.870Z,2.50
2022-11-09T20:36:36.666Z,3.13
2022-11-09T20:39:04.958Z,2.60
2022-11-09T20:41:33.243Z,3.17
2022-11-09T20:44:01.040Z,2.93
2022-11-09T20:46:35.373Z,3.10
2022-11-09T20:49:06.057Z,2.53
2022-11-09T20:51:33.876Z,2.50
2022-11-09T20:54:06.971Z,2.83
2022-11-09T20:56:35.478Z,2.80
2022-11-09T20:59:03.298Z,2.70
2022-11-09T21:01:31.172Z,3.10
2022-11-09T21:03:59.164Z,3.03
2022-11-09T21:06:28.429Z,1.97
2022-11-09T21:08:56.968Z,2.87
2022-11-09T21:11:28.556Z,2.47
2022-11-09T21:13:56.854Z,2.17
2022-11-09T21:16:25.005Z,2.33
2022-11-09T21:18:52.880Z,2.20
2022-11-09T21:21:22.896Z,2.13
2022-11-09T21:24:09.678Z,1.93
2022-11-09T21:26:55.195Z,1.77
2022-11-09T21:29:43.816Z,2.30
2022-11-09T21:32:12.352Z,2.47
2022-11-09T21:34:40.147Z,2.43
2022-11-09T21:37:08.179Z,2.37
2022-11-09T21:39:38.177Z,1.73
2022-11-09T21:42:07.315Z,2.47
2022-11-09T21:44:35.797Z,2.70
2022-11-09T21:47:04.243Z,2.57
2022-11-09T21:49:32.260Z,2.20
2022-11-09T21:52:00.582Z,2.03
2022-11-09T21:54:28.723Z,2.40
2022-11-09T21:56:58.031Z,1.87
2022-11-09T21:59:25.952Z,2.13
2022-11-09T22:01:53.754Z,2.17
2022-11-09T22:04:21.609Z,2.10
2022-11-09T22:06:49.439Z,2.10
2022-11-09T22:09:19.081Z,2.63
2022-11-09T22:12:04.459Z,2.10
2022-11-09T22:14:51.432Z,2.20
2022-11-09T22:17:19.260Z,2.20
2022-11-09T22:20:04.642Z,2.40
2022-11-09T22:22:33.815Z,2.00
2022-11-09T22:25:01.601Z,2.23
2022-11-09T22:27:30.893Z,1.93
2022-11-09T22:30:00.152Z,2.30
2022-11-09T22:32:28.035Z,1.80
2022-11-09T22:34:55.763Z,2.40
2022-11-09T22:37:23.586Z,2.40
2022-11-09T22:39:51.383Z,2.40
2022-11-09T22:42:19.172Z,2.63
2022-11-09T22:44:49.973Z,2.20
2022-11-09T22:47:19.108Z,1.80
2022-11-09T22:49:46.928Z,2.43
2022-11-09T22:52:14.785Z,2.47
2022-11-09T22:54:42.555Z,2.30
2022-11-09T22:57:10.420Z,2.13
2022-11-09T23:02:21.370Z,2.20
2022-11-09T23:04:49.084Z,2.07
2022-11-09T23:07:16.999Z,2.40
2022-11-09T23:09:44.809Z,2.50
2022-11-09T23:12:12.587Z,2.90
2022-11-09T23:14:58.194Z,2.27
2022-11-09T23:17:44.973Z,2.57
2022-11-09T23:20:13.158Z,2.53
2022-11-09T23:22:40.932Z,2.70
2022-11-09T23:25:27.964Z,2.90
2022-11-09T23:27:56.055Z,2.30
2022-11-09T23:30:24.273Z,2.30
2022-11-09T23:32:53.608Z,2.50
2022-11-09T23:35:21.416Z,1.90
2022-11-09T23:37:49.165Z,2.83
2022-11-09T23:40:17.471Z,3.00
2022-11-09T23:42:45.305Z,2.90
2022-11-09T23:45:13.145Z,2.70
2022-11-09T23:47:40.889Z,2.50
2022-11-09T23:50:10.508Z,3.00
2022-11-09T23:52:38.320Z,3.67
2022-11-09T23:55:06.849Z,3.33
2022-11-09T23:57:34.757Z,2.80
